Airfield :
LOGIN :

Register | Disclaimer

   EN    FR    IT 

 










Legend :    VFR   Marginal VFR   IFR   Intensive IFR   Very Intensive IFR
Visi :
Ceiling :
>= 8 km
>= 3000ft
5 to 8 km
1000 to 3000 ft
1500m to 5 km
500 to 1000 ft
800 to 1500m
200 to 500 ft
< 800m
< 200 ft
Symbols :   Thunderstorms  Fog  Heavy snow  Heavy precipitations  Wind > 20 kt
SIGMETs :     Misc.  Thunderstorms  Icing  Turbulence  Mountain Waves  Volcanic Ashes







- Airport Elevation : 1276 ft
- IATA code : STR


EDDS - Stuttgart

CURRENT METAR :
  • 211020Z 31016KT 9999 SCT020 02/M01 Q1015 NOSIG

EXPIRED METARs :
  • 210950Z 29016KT 9999 FEW019 SCT023 02/M01 Q1014 NOSIG
  • 210920Z 29013KT 9999 -SHSN FEW017 SCT027 02/00 Q1014 NOSIG
  • 210850Z 28011KT 9999 VCSH FEW016 SCT024 BKN048 02/00 Q1013 NOSIG
  • 210820Z 28011KT 9999 -SHSN FEW015 BKN023 02/M00 Q1013 NOSIG
  • 210750Z 28010KT 9999 -SHSN FEW014 BKN024 BKN046 02/00 Q1012 NOSIG

TAF TAF EDDS
Valid from the 21 at 06:00 until the 22 at 06:00 UTC


210500Z 2106/2206 28009KT 9000 SCT010 BKN020
TEMPO 2106/2110 4000 -RASN BKN010
BECMG 2116/2119 16004KT
TEMPO 2123/2203 2000 SN BKN005
PROB30
TEMPO 2202/2205 -FZRA
TEMPO 2203/2206 3500 RA BKN008
No reported NOTAMs for that airfield.
1 SIGMET reported for the Langen FIR (EDGG) :
 
Severe icing
EDGG SIGMET 1 VALID 210930/211200 EDZF
EDGG LANGEN FIR SEV ICE OBS WI N4922 E01057 - N4838 E00942 - N4808 E00936 - N4742 E00728 - N4742 E00725 - N4843 E00750 - N4922 E01057 4000FT/FL070 MOV SE WKN=



MET'MAP, your aeronautical weather chart ! - Copyright ORBIFLY December 2007 - Disclaimer

ORBIFLY MET'MAP TEAM :

Programming & Development : Alexandra Zaïnal
Concept & Development : Baudouin d'Aumeries
Co-Development & Prog : Marc-Olivier Méhu
Technical & hardware support : Manuel Goepfert

Contact : metmap@orbifly.com




SOURCES & CREDITS :

   NOAA